This is the latest recevied weather packets stored in our database for station/object K0QED. If no packets are shown the sender has not sent any weather packets the latest 10 day(s).
| Time | Temp. | Humidity | Pressure | Rain* | Wind** | Luminosity | Snow |
|---|---|---|---|---|---|---|---|
| 1788424922 | 16.67° C | 46% | 1022.6 hPa | 0 mm | - | 0 W/m² | - |
| 1788424618 | 16.11° C | 49% | 1022.7 hPa | 0 mm | - | 0 W/m² | - |
| 1788424317 | 15.56° C | 51% | 1022.7 hPa | 0 mm | - | 0 W/m² | - |
| 1788424012 | 15° C | 58% | 1023 hPa | 0 mm | - | 0 W/m² | - |
| 1788423708 | 14.44° C | 64% | 1022.7 hPa | 0 mm | - | 0 W/m² | - |
| 1788423402 | 15° C | 63% | 1023.1 hPa | 0 mm | - | 0 W/m² | - |
| 1788423098 | 15° C | 62% | 1022.9 hPa | 0 mm | - | 0 W/m² | - |
| 1788422794 | 15.56° C | 60% | 1023 hPa | 0 mm | - | 0 W/m² | - |
| 1788422492 | 15.56° C | 61% | 1023.1 hPa | 0 mm | - | 0 W/m² | - |
| 1788422191 | 15.56° C | 62% | 1023.1 hPa | 0 mm | - | 0 W/m² | - |
| 1788421886 | 15.56° C | 62% | 1023.2 hPa | 0 mm | - | 0 W/m² | - |
| 1788421585 | 15.56° C | 62% | 1023.4 hPa | 0 mm | - | 0 W/m² | - |
| 1788421280 | 15.56° C | 62% | 1023.4 hPa | 0 mm | - | 0 W/m² | - |
| 1788420975 | 15.56° C | 64% | 1023.2 hPa | 0 mm | - | 0 W/m² | - |
| 1788420671 | 15.56° C | 63% | 1023.2 hPa | 0 mm | - | 0 W/m² | - |
| 1788420367 | 15.56° C | 63% | 1023.5 hPa | 0 mm | - | 0 W/m² | - |
| 1788420063 | 15.56° C | 63% | 1023.6 hPa | 0 mm | - | 0 W/m² | - |
| 1788419760 | 15.56° C | 63% | 1023.5 hPa | 0 mm | - | 0 W/m² | - |
| 1788419460 | 15.56° C | 63% | 1023.4 hPa | 0 mm | - | 0 W/m² | - |
| 1788419159 | 15.56° C | 63% | 1023.4 hPa | 0 mm | - | 0 W/m² | - |
| 1788418855 | 15.56° C | 63% | 1023.5 hPa | 0 mm | - | 0 W/m² | - |
| 1788418554 | 15.56° C | 62% | 1023.5 hPa | 0 mm | - | 0 W/m² | - |
| 1788418249 | 15.56° C | 62% | 1023.4 hPa | 0 mm | - | 0 W/m² | - |
| 1788417949 | 16.11° C | 62% | 1023.1 hPa | 0 mm | - | 0 W/m² | - |
| 1788417644 | 16.11° C | 62% | 1023.4 hPa | 0 mm | - | 0 W/m² | - |
* Rain latest hour (hover to see other rain measurements)
** Current wind speed in m/s (hover to see current wind gust speed)